Time;durP1;ratioP1;P1;durP2;ratioP2;P2;SDS_P1;SDS_P2;PMS_P1;PMS_P2;Temp;Humidity;BMP_temperature;BMP_pressure;BME280_temperature;BME280_humidity;BME280_pressure;Samples;Min_cycle;Max_cycle;Signal;HPM_P1;HPM_P2
2021/03/21 00:01:17;;;;;;;7.95;6.78;;;;;;;0.96;98.96;94174.12;828366;71;32702;-77
2021/03/21 00:16:09;;;;;;;9.23;7.28;;;;;;;0.91;99.05;94179.72;835127;71;30550;-78
2021/03/21 00:31:22;;;;;;;6.60;5.90;;;;;;;0.82;99.47;94167.71;834243;71;32754;-79
2021/03/21 00:46:12;;;;;;;6.58;5.47;;;;;;;0.75;99.88;94147.70;828286;71;30872;-82
2021/03/21 01:01:16;;;;;;;5.72;5.12;;;;;;;0.69;100.00;94146.87;833907;71;32761;-80
2021/03/21 01:16:15;;;;;;;5.05;4.60;;;;;;;0.71;100.00;94128.05;828334;71;30733;-79
2021/03/21 01:31:21;;;;;;;3.55;3.25;;;;;;;0.68;100.00;94108.37;834130;71;32953;-78
2021/03/21 01:46:23;;;;;;;2.98;2.77;;;;;;;0.58;100.00;94120.61;794051;74;32810;-79
2021/03/21 02:01:15;;;;;;;2.60;2.45;;;;;;;0.53;100.00;94076.66;835306;71;31681;-81
2021/03/21 02:16:18;;;;;;;2.30;2.20;;;;;;;0.35;100.00;94090.05;828210;71;27719;-79
2021/03/21 02:31:32;;;;;;;2.40;2.30;;;;;;;0.37;100.00;94077.70;834414;71;30272;-78
2021/03/21 02:46:12;;;;;;;1.85;1.75;;;;;;;0.21;100.00;94084.15;834270;71;30257;-79
2021/03/21 03:01:59;;;;;;;2.45;2.35;;;;;;;0.15;100.00;94069.09;828165;71;33004;-79
2021/03/21 03:16:27;;;;;;;3.47;3.22;;;;;;;0.14;100.00;94076.05;828554;71;32014;-80
2021/03/21 03:31:20;;;;;;;4.55;4.20;;;;;;;0.12;100.00;94072.92;834285;71;31461;-81
2021/03/21 03:46:20;;;;;;;4.92;4.53;;;;;;;0.03;100.00;94073.02;827837;71;33161;-82
2021/03/21 04:01:17;;;;;;;3.83;3.62;;;;;;;-0.04;100.00;94083.48;834295;71;32728;-79
2021/03/21 04:16:16;;;;;;;4.60;4.20;;;;;;;-0.06;100.00;94068.75;828275;71;33059;-81
2021/03/21 04:31:11;;;;;;;3.72;3.42;;;;;;;-0.12;100.00;94072.73;828403;71;30778;-80
2021/03/21 04:46:25;;;;;;;4.87;4.40;;;;;;;0.00;100.00;94079.94;834472;71;33223;-79
2021/03/21 05:01:33;;;;;;;5.83;5.22;;;;;;;-0.02;100.00;94073.72;828135;71;32683;-78
2021/03/21 05:16:27;;;;;;;6.45;5.50;;;;;;;-0.01;100.00;94064.95;828487;71;31996;-77
2021/03/21 05:31:11;;;;;;;5.80;5.17;;;;;;;0.02;100.00;94048.74;828304;71;30845;-80
2021/03/21 05:46:59;;;;;;;6.25;5.00;;;;;;;0.07;100.00;94074.11;829114;70;32776;-82
2021/03/21 06:01:23;;;;;;;5.00;4.50;;;;;;;0.11;100.00;94081.66;834283;71;32682;-79
2021/03/21 06:16:13;;;;;;;5.35;4.50;;;;;;;-0.07;100.00;94040.61;828460;71;28830;-78
2021/03/21 06:31:32;;;;;;;5.20;4.65;;;;;;;0.29;100.00;94099.25;828150;71;30309;-77
2021/03/21 06:46:31;;;;;;;4.60;4.20;;;;;;;0.36;100.00;94103.22;828561;71;30219;-75
2021/03/21 07:01:23;;;;;;;5.70;4.08;;;;;;;0.37;100.00;94108.67;829421;71;29806;-77
2021/03/21 07:16:31;;;;;;;5.15;4.40;;;;;;;0.37;100.00;94098.34;828159;71;31981;-75
2021/03/21 07:31:40;;;;;;;4.40;3.87;;;;;;;0.42;100.00;94102.80;826757;71;30156;-77
2021/03/21 07:46:34;;;;;;;5.75;4.85;;;;;;;0.47;100.00;94087.92;828239;71;33109;-77
2021/03/21 08:01:08;;;;;;;5.60;4.30;;;;;;;0.52;100.00;94084.12;833961;71;29708;-77
2021/03/21 08:16:18;;;;;;;6.00;5.03;;;;;;;0.55;100.00;94071.53;827556;71;32750;-76
2021/03/21 08:31:14;;;;;;;5.53;4.60;;;;;;;0.46;100.00;94030.34;828156;71;29741;-78
2021/03/21 08:46:19;;;;;;;8.03;6.10;;;;;;;0.67;100.00;94039.19;818341;71;32721;-76
2021/03/21 09:01:42;;;;;;;7.65;6.00;;;;;;;0.91;100.00;94022.19;827402;71;32641;-77
2021/03/21 09:16:13;;;;;;;5.90;5.05;;;;;;;1.06;98.41;93995.78;828247;71;31531;-77
2021/03/21 09:31:14;;;;;;;6.03;4.17;;;;;;;1.45;95.83;93977.08;828182;71;29769;-75
2021/03/21 09:46:23;;;;;;;4.30;3.15;;;;;;;2.22;90.38;93992.51;828109;71;29759;-76
2021/03/21 10:01:52;;;;;;;3.60;3.10;;;;;;;2.22;88.22;93957.05;767531;76;33008;-81
2021/03/21 10:16:24;;;;;;;4.33;3.12;;;;;;;2.23;88.05;93947.47;835769;71;32774;-84
2021/03/21 10:31:33;;;;;;;3.30;3.00;;;;;;;2.04;86.69;93963.91;835866;71;32669;-80
2021/03/21 10:46:18;;;;;;;3.20;3.00;;;;;;;1.85;88.90;93955.74;828371;71;32656;-79
2021/03/21 11:46:15;;;;;;;3.10;2.80;;;;;;;2.45;86.16;93874.34;834542;71;30280;-81
2021/03/21 12:16:41;;;;;;;4.17;3.87;;;;;;;3.03;87.82;93834.14;836359;70;32682;-81
2021/03/21 12:31:56;;;;;;;4.50;4.10;;;;;;;3.62;85.71;93784.91;815975;72;32787;-80
2021/03/21 12:46:16;;;;;;;3.92;3.62;;;;;;;3.12;83.54;93774.30;820561;71;32800;-81
2021/03/21 13:01:12;;;;;;;6.20;4.72;;;;;;;2.60;85.36;93760.48;828231;71;32006;-79
2021/03/21 13:16:14;;;;;;;3.30;3.05;;;;;;;2.73;84.07;93738.48;828369;71;32767;-82
2021/03/21 13:31:17;;;;;;;5.33;3.70;;;;;;;2.64;84.96;93737.45;827916;71;32789;-80
2021/03/21 13:46:21;;;;;;;3.40;3.20;;;;;;;2.54;86.40;93718.02;834449;71;33112;-81
2021/03/21 14:01:24;;;;;;;4.40;4.05;;;;;;;2.15;88.33;93699.80;834307;71;32678;-78
2021/03/21 14:16:14;;;;;;;5.22;4.53;;;;;;;1.69;91.85;93706.61;828230;71;33048;-78
2021/03/21 14:31:10;;;;;;;4.17;3.80;;;;;;;1.42;93.78;93663.56;828365;71;29684;-76
2021/03/21 14:46:08;;;;;;;4.80;4.40;;;;;;;1.05;96.37;93641.12;828118;71;29652;-79
2021/03/21 15:01:41;;;;;;;5.80;4.97;;;;;;;0.80;99.14;93625.73;828359;71;32681;-79
2021/03/21 15:16:16;;;;;;;8.23;5.97;;;;;;;0.62;100.00;93620.95;834025;71;32642;-77
2021/03/21 15:31:36;;;;;;;12.85;8.75;;;;;;;0.50;100.00;93604.86;828075;71;33104;-79
2021/03/21 15:46:19;;;;;;;13.15;10.25;;;;;;;0.35;100.00;93617.14;834553;71;32680;-77
2021/03/21 16:01:10;;;;;;;11.65;9.85;;;;;;;0.17;100.00;93623.42;828260;71;30263;-77
2021/03/21 16:16:10;;;;;;;10.78;8.70;;;;;;;0.12;100.00;93601.45;828773;71;30311;-78
2021/03/21 16:31:19;;;;;;;11.55;8.10;;;;;;;0.11;100.00;93576.69;827135;71;33011;-77
2021/03/21 17:01:13;;;;;;;9.53;6.53;;;;;;;0.10;100.00;93588.02;823158;71;31398;-81
2021/03/21 17:46:10;;;;;;;17.30;8.95;;;;;;;0.15;100.00;93546.30;834244;71;30288;-83
2021/03/21 18:01:43;;;;;;;10.05;7.55;;;;;;;0.19;100.00;93558.19;794091;74;32896;-81
2021/03/21 18:16:37;;;;;;;10.28;6.92;;;;;;;0.27;100.00;93563.42;810409;72;33151;-82
2021/03/21 19:01:53;;;;;;;9.03;7.30;;;;;;;0.17;100.00;93502.21;804997;72;32887;-81
2021/03/21 19:31:29;;;;;;;8.48;6.40;;;;;;;0.20;100.00;93477.20;825189;71;31904;-81
2021/03/21 20:01:14;;;;;;;6.53;4.97;;;;;;;0.13;100.00;93434.09;828978;71;31696;-82
2021/03/21 20:16:31;;;;;;;7.12;5.80;;;;;;;0.14;100.00;93405.98;824368;71;31901;-78
2021/03/21 20:31:14;;;;;;;7.72;5.75;;;;;;;0.08;100.00;93376.03;825913;71;30436;-79
2021/03/21 20:46:49;;;;;;;5.67;5.00;;;;;;;0.12;100.00;93375.80;806749;72;31936;-82
2021/03/21 21:01:39;;;;;;;6.00;5.15;;;;;;;0.10;100.00;93337.88;820150;71;31870;-81
2021/03/21 21:16:10;;;;;;;7.28;5.53;;;;;;;0.12;100.00;93333.25;822815;71;30040;-82
2021/03/21 21:31:22;;;;;;;6.47;4.37;;;;;;;0.10;100.00;93309.52;820070;71;31807;-83
2021/03/21 21:46:19;;;;;;;5.05;4.17;;;;;;;0.01;100.00;93268.50;828214;71;31789;-82
2021/03/21 22:01:09;;;;;;;3.00;2.80;;;;;;;0.01;100.00;93237.56;829030;71;29299;-81
2021/03/21 22:31:21;;;;;;;2.05;1.90;;;;;;;0.06;100.00;93231.11;832878;71;31774;-84
2021/03/21 22:46:20;;;;;;;1.65;1.55;;;;;;;-0.03;100.00;93205.06;834377;71;31763;-82
2021/03/21 23:01:20;;;;;;;2.40;1.98;;;;;;;-0.13;100.00;93223.07;834478;71;31757;-80
2021/03/21 23:16:15;;;;;;;1.40;1.40;;;;;;;-0.18;100.00;93220.45;827746;71;32734;-83
